sensor_id;sensor_type;location;lat;lon;timestamp;pressure;altitude;pressure_sealevel;temperature;humidity
45541;BME280;31265;49.680;8.608;2023-08-17T00:01:46;100645.94;;;18.50;100.00
45541;BME280;31265;49.680;8.608;2023-08-17T00:04:17;100644.44;;;18.48;100.00
45541;BME280;31265;49.680;8.608;2023-08-17T00:06:45;100636.75;;;18.61;100.00
45541;BME280;31265;49.680;8.608;2023-08-17T00:09:15;100641.75;;;18.62;100.00
45541;BME280;31265;49.680;8.608;2023-08-17T00:11:43;100635.75;;;18.68;100.00
45541;BME280;31265;49.680;8.608;2023-08-17T00:14:12;100642.72;;;18.67;100.00
45541;BME280;31265;49.680;8.608;2023-08-17T00:16:41;100646.63;;;18.62;100.00
45541;BME280;31265;49.680;8.608;2023-08-17T00:19:10;100648.84;;;18.52;100.00
45541;BME280;31265;49.680;8.608;2023-08-17T00:21:38;100652.88;;;18.48;100.00
45541;BME280;31265;49.680;8.608;2023-08-17T00:24:07;100658.88;;;18.55;100.00
45541;BME280;31265;49.680;8.608;2023-08-17T00:26:36;100656.06;;;18.55;100.00
45541;BME280;31265;49.680;8.608;2023-08-17T00:29:04;100666.66;;;18.44;100.00
45541;BME280;31265;49.680;8.608;2023-08-17T00:31:33;100655.69;;;18.37;100.00
45541;BME280;31265;49.680;8.608;2023-08-17T00:34:03;100652.88;;;18.25;100.00
45541;BME280;31265;49.680;8.608;2023-08-17T00:36:32;100659.56;;;18.20;100.00
45541;BME280;31265;49.680;8.608;2023-08-17T00:39:01;100655.81;;;18.15;100.00
45541;BME280;31265;49.680;8.608;2023-08-17T00:41:29;100647.13;;;18.11;100.00
45541;BME280;31265;49.680;8.608;2023-08-17T00:43:59;100653.34;;;18.10;100.00
45541;BME280;31265;49.680;8.608;2023-08-17T00:46:29;100655.91;;;18.05;100.00
45541;BME280;31265;49.680;8.608;2023-08-17T00:48:57;100655.38;;;17.97;100.00
45541;BME280;31265;49.680;8.608;2023-08-17T00:51:28;100646.47;;;17.89;100.00
45541;BME280;31265;49.680;8.608;2023-08-17T00:53:59;100645.97;;;17.81;100.00
45541;BME280;31265;49.680;8.608;2023-08-17T00:56:30;100648.50;;;17.77;100.00
45541;BME280;31265;49.680;8.608;2023-08-17T00:58:59;100645.44;;;17.73;100.00
45541;BME280;31265;49.680;8.608;2023-08-17T01:01:28;100636.50;;;17.65;100.00
45541;BME280;31265;49.680;8.608;2023-08-17T01:03:59;100638.34;;;17.72;100.00
45541;BME280;31265;49.680;8.608;2023-08-17T01:06:28;100641.03;;;17.70;100.00
45541;BME280;31265;49.680;8.608;2023-08-17T01:08:56;100633.84;;;17.67;100.00
45541;BME280;31265;49.680;8.608;2023-08-17T01:11:31;100640.66;;;17.63;100.00
45541;BME280;31265;49.680;8.608;2023-08-17T01:14:04;100638.94;;;17.58;100.00
45541;BME280;31265;49.680;8.608;2023-08-17T01:16:37;100636.50;;;17.65;100.00
45541;BME280;31265;49.680;8.608;2023-08-17T01:19:08;100638.00;;;17.66;100.00
45541;BME280;31265;49.680;8.608;2023-08-17T01:21:41;100643.84;;;17.70;100.00
45541;BME280;31265;49.680;8.608;2023-08-17T01:24:14;100636.63;;;17.67;100.00
45541;BME280;31265;49.680;8.608;2023-08-17T01:26:42;100640.66;;;17.63;100.00
45541;BME280;31265;49.680;8.608;2023-08-17T01:29:11;100639.31;;;17.65;100.00
45541;BME280;31265;49.680;8.608;2023-08-17T01:31:43;100626.38;;;17.59;100.00
45541;BME280;31265;49.680;8.608;2023-08-17T01:34:24;100629.91;;;17.60;100.00
45541;BME280;31265;49.680;8.608;2023-08-17T01:36:57;100626.50;;;17.61;100.00
45541;BME280;31265;49.680;8.608;2023-08-17T01:39:37;100630.53;;;17.58;100.00
45541;BME280;31265;49.680;8.608;2023-08-17T01:42:06;100626.72;;;17.54;100.00
45541;BME280;31265;49.680;8.608;2023-08-17T01:44:36;100640.63;;;17.52;100.00
45541;BME280;31265;49.680;8.608;2023-08-17T01:47:04;100635.50;;;17.48;100.00
45541;BME280;31265;49.680;8.608;2023-08-17T01:49:33;100631.22;;;17.47;100.00
45541;BME280;31265;49.680;8.608;2023-08-17T01:52:01;100625.59;;;17.47;100.00
45541;BME280;31265;49.680;8.608;2023-08-17T01:54:31;100624.28;;;17.48;100.00
45541;BME280;31265;49.680;8.608;2023-08-17T01:57:00;100619.63;;;17.41;100.00
45541;BME280;31265;49.680;8.608;2023-08-17T01:59:28;100623.50;;;17.36;100.00
45541;BME280;31265;49.680;8.608;2023-08-17T02:01:57;100631.78;;;17.34;100.00
45541;BME280;31265;49.680;8.608;2023-08-17T02:04:25;100637.25;;;17.32;100.00
45541;BME280;31265;49.680;8.608;2023-08-17T02:06:53;100630.69;;;17.39;100.00
45541;BME280;31265;49.680;8.608;2023-08-17T02:09:25;100628.56;;;17.28;100.00
45541;BME280;31265;49.680;8.608;2023-08-17T02:11:54;100621.97;;;17.23;100.00
45541;BME280;31265;49.680;8.608;2023-08-17T02:14:24;100628.06;;;17.19;100.00
45541;BME280;31265;49.680;8.608;2023-08-17T02:16:53;100624.84;;;17.13;100.00
45541;BME280;31265;49.680;8.608;2023-08-17T02:19:21;100620.59;;;17.12;100.00
45541;BME280;31265;49.680;8.608;2023-08-17T02:21:50;100611.22;;;17.19;100.00
45541;BME280;31265;49.680;8.608;2023-08-17T02:24:19;100613.63;;;17.13;100.00
45541;BME280;31265;49.680;8.608;2023-08-17T02:26:48;100612.97;;;17.25;100.00
45541;BME280;31265;49.680;8.608;2023-08-17T02:29:18;100614.91;;;17.22;100.00
45541;BME280;31265;49.680;8.608;2023-08-17T02:31:46;100612.69;;;17.20;100.00
45541;BME280;31265;49.680;8.608;2023-08-17T02:34:15;100612.22;;;17.24;100.00
45541;BME280;31265;49.680;8.608;2023-08-17T02:36:46;100610.88;;;17.25;100.00
45541;BME280;31265;49.680;8.608;2023-08-17T02:39:15;100608.06;;;17.25;100.00
45541;BME280;31265;49.680;8.608;2023-08-17T02:41:45;100612.28;;;17.36;100.00
45541;BME280;31265;49.680;8.608;2023-08-17T02:44:17;100613.81;;;17.27;100.00
45541;BME280;31265;49.680;8.608;2023-08-17T02:46:46;100612.38;;;17.26;100.00
45541;BME280;31265;49.680;8.608;2023-08-17T02:49:14;100610.41;;;17.29;100.00
45541;BME280;31265;49.680;8.608;2023-08-17T02:51:45;100610.78;;;17.35;100.00
45541;BME280;31265;49.680;8.608;2023-08-17T02:54:13;100616.91;;;17.31;100.00
45541;BME280;31265;49.680;8.608;2023-08-17T02:56:46;100614.41;;;17.26;100.00
45541;BME280;31265;49.680;8.608;2023-08-17T02:59:15;100621.97;;;17.23;100.00
45541;BME280;31265;49.680;8.608;2023-08-17T03:01:53;100624.16;;;17.25;100.00
45541;BME280;31265;49.680;8.608;2023-08-17T03:04:22;100624.69;;;17.33;100.00
45541;BME280;31265;49.680;8.608;2023-08-17T03:06:51;100625.53;;;17.35;100.00
45541;BME280;31265;49.680;8.608;2023-08-17T03:09:21;100628.47;;;17.37;100.00
45541;BME280;31265;49.680;8.608;2023-08-17T03:11:50;100621.56;;;17.38;100.00
45541;BME280;31265;49.680;8.608;2023-08-17T03:14:18;100622.88;;;17.37;100.00
45541;BME280;31265;49.680;8.608;2023-08-17T03:16:47;100624.69;;;17.33;100.00
45541;BME280;31265;49.680;8.608;2023-08-17T03:19:17;100604.81;;;17.29;100.00
45541;BME280;31265;49.680;8.608;2023-08-17T03:21:45;100607.84;;;17.33;100.00
45541;BME280;31265;49.680;8.608;2023-08-17T03:24:14;100605.69;;;17.43;100.00
45541;BME280;31265;49.680;8.608;2023-08-17T03:26:45;100621.06;;;17.42;100.00
45541;BME280;31265;49.680;8.608;2023-08-17T03:29:14;100618.94;;;17.31;100.00
45541;BME280;31265;49.680;8.608;2023-08-17T03:31:43;100614.41;;;17.26;100.00
45541;BME280;31265;49.680;8.608;2023-08-17T03:34:13;100618.94;;;17.31;100.00
45541;BME280;31265;49.680;8.608;2023-08-17T03:36:52;100621.63;;;17.29;100.00
45541;BME280;31265;49.680;8.608;2023-08-17T03:39:22;100621.75;;;17.31;100.00
45541;BME280;31265;49.680;8.608;2023-08-17T03:41:52;100620.22;;;17.39;100.00
45541;BME280;31265;49.680;8.608;2023-08-17T03:44:21;100624.44;;;17.29;100.00
45541;BME280;31265;49.680;8.608;2023-08-17T03:46:50;100620.16;;;17.28;100.00
45541;BME280;31265;49.680;8.608;2023-08-17T03:49:19;100628.97;;;17.34;100.00
45541;BME280;31265;49.680;8.608;2023-08-17T03:51:49;100623.22;;;17.32;100.00
45541;BME280;31265;49.680;8.608;2023-08-17T03:54:19;100628.97;;;17.34;100.00
45541;BME280;31265;49.680;8.608;2023-08-17T03:56:47;100637.84;;;17.30;100.00
45541;BME280;31265;49.680;8.608;2023-08-17T03:59:19;100638.56;;;17.31;100.00
45541;BME280;31265;49.680;8.608;2023-08-17T04:01:50;100635.34;;;17.46;100.00
45541;BME280;31265;49.680;8.608;2023-08-17T04:04:22;100638.97;;;17.37;100.00
45541;BME280;31265;49.680;8.608;2023-08-17T04:06:52;100634.97;;;17.40;100.00
45541;BME280;31265;49.680;8.608;2023-08-17T04:09:21;100633.66;;;17.53;100.00
45541;BME280;31265;49.680;8.608;2023-08-17T04:11:50;100629.84;;;17.36;100.00
45541;BME280;31265;49.680;8.608;2023-08-17T04:14:23;100636.66;;;17.33;100.00
45541;BME280;31265;49.680;8.608;2023-08-17T04:16:55;100638.31;;;17.27;100.00
45541;BME280;31265;49.680;8.608;2023-08-17T04:19:25;100646.19;;;17.40;100.00
45541;BME280;31265;49.680;8.608;2023-08-17T04:21:56;100647.13;;;17.33;100.00
45541;BME280;31265;49.680;8.608;2023-08-17T04:24:30;100647.78;;;17.43;100.00
45541;BME280;31265;49.680;8.608;2023-08-17T04:26:59;100640.78;;;17.32;100.00
45541;BME280;31265;49.680;8.608;2023-08-17T04:29:27;100642.25;;;17.33;100.00
45541;BME280;31265;49.680;8.608;2023-08-17T04:31:57;100652.34;;;17.27;100.00
45541;BME280;31265;49.680;8.608;2023-08-17T04:34:28;100655.28;;;17.29;100.00
45541;BME280;31265;49.680;8.608;2023-08-17T04:36:58;100652.94;;;17.25;100.00
45541;BME280;31265;49.680;8.608;2023-08-17T04:39:26;100656.59;;;17.28;100.00
45541;BME280;31265;49.680;8.608;2023-08-17T04:41:55;100656.22;;;17.22;100.00
45541;BME280;31265;49.680;8.608;2023-08-17T04:44:30;100651.94;;;17.20;100.00
45541;BME280;31265;49.680;8.608;2023-08-17T04:46:59;100658.31;;;17.21;100.00
45541;BME280;31265;49.680;8.608;2023-08-17T04:49:27;100652.22;;;17.25;100.00
45541;BME280;31265;49.680;8.608;2023-08-17T04:51:59;100650.88;;;17.26;100.00
45541;BME280;31265;49.680;8.608;2023-08-17T04:54:27;100660.53;;;17.34;100.00
45541;BME280;31265;49.680;8.608;2023-08-17T04:57:19;100654.72;;;17.42;100.00
45541;BME280;31265;49.680;8.608;2023-08-17T04:59:47;100656.31;;;17.45;100.00
45541;BME280;31265;49.680;8.608;2023-08-17T05:02:22;100664.59;;;17.43;100.00
45541;BME280;31265;49.680;8.608;2023-08-17T05:04:52;100664.72;;;17.45;100.00
45541;BME280;31265;49.680;8.608;2023-08-17T05:07:23;100658.19;;;17.52;100.00
45541;BME280;31265;49.680;8.608;2023-08-17T05:09:54;100662.78;;;17.48;100.00
45541;BME280;31265;49.680;8.608;2023-08-17T05:12:24;100665.00;;;17.49;100.00
45541;BME280;31265;49.680;8.608;2023-08-17T05:14:52;100668.25;;;17.46;100.00
45541;BME280;31265;49.680;8.608;2023-08-17T05:17:28;100673.41;;;17.49;100.00
45541;BME280;31265;49.680;8.608;2023-08-17T05:19:57;100682.34;;;17.57;100.00
45541;BME280;31265;49.680;8.608;2023-08-17T05:22:28;100677.69;;;17.50;100.00
45541;BME280;31265;49.680;8.608;2023-08-17T05:24:56;100672.59;;;17.58;100.00
45541;BME280;31265;49.680;8.608;2023-08-17T05:27:25;100683.56;;;17.54;100.00
45541;BME280;31265;49.680;8.608;2023-08-17T05:29:54;100685.88;;;17.58;100.00
45541;BME280;31265;49.680;8.608;2023-08-17T05:32:23;100685.28;;;17.59;100.00
45541;BME280;31265;49.680;8.608;2023-08-17T05:34:53;100693.75;;;17.71;100.00
45541;BME280;31265;49.680;8.608;2023-08-17T05:37:22;100689.13;;;17.76;100.00
45541;BME280;31265;49.680;8.608;2023-08-17T05:39:53;100695.00;;;17.80;100.00
45541;BME280;31265;49.680;8.608;2023-08-17T05:42:22;100686.28;;;17.97;100.00
45541;BME280;31265;49.680;8.608;2023-08-17T05:44:50;100681.75;;;17.92;100.00
45541;BME280;31265;49.680;8.608;2023-08-17T05:47:19;100681.00;;;17.92;100.00
45541;BME280;31265;49.680;8.608;2023-08-17T05:49:47;100683.81;;;17.92;100.00
45541;BME280;31265;49.680;8.608;2023-08-17T05:52:15;100683.50;;;18.09;100.00
45541;BME280;31265;49.680;8.608;2023-08-17T05:54:44;100692.41;;;18.05;100.00
45541;BME280;31265;49.680;8.608;2023-08-17T05:57:14;100686.44;;;18.11;100.00
45541;BME280;31265;49.680;8.608;2023-08-17T05:59:42;100694.00;;;18.32;100.00
45541;BME280;31265;49.680;8.608;2023-08-17T06:02:13;100695.25;;;18.41;100.00
45541;BME280;31265;49.680;8.608;2023-08-17T06:04:41;100686.81;;;18.29;100.00
45541;BME280;31265;49.680;8.608;2023-08-17T06:07:10;100689.28;;;18.58;100.00
45541;BME280;31265;49.680;8.608;2023-08-17T06:09:39;100678.66;;;18.92;100.00
45541;BME280;31265;49.680;8.608;2023-08-17T06:12:08;100684.28;;;18.92;100.00
45541;BME280;31265;49.680;8.608;2023-08-17T06:14:40;100689.38;;;18.96;100.00
45541;BME280;31265;49.680;8.608;2023-08-17T06:17:09;100694.28;;;18.95;100.00
45541;BME280;31265;49.680;8.608;2023-08-17T06:19:37;100685.94;;;19.09;100.00
45541;BME280;31265;49.680;8.608;2023-08-17T06:22:07;100681.25;;;19.25;100.00
45541;BME280;31265;49.680;8.608;2023-08-17T06:24:35;100683.81;;;19.21;100.00
45541;BME280;31265;49.680;8.608;2023-08-17T06:27:05;100686.31;;;19.41;100.00
45541;BME280;31265;49.680;8.608;2023-08-17T06:29:34;100689.69;;;19.51;100.00
45541;BME280;31265;49.680;8.608;2023-08-17T06:32:04;100684.69;;;19.87;100.00
45541;BME280;31265;49.680;8.608;2023-08-17T06:34:32;100690.38;;;20.14;100.00
45541;BME280;31265;49.680;8.608;2023-08-17T06:37:04;100686.53;;;20.22;100.00
45541;BME280;31265;49.680;8.608;2023-08-17T06:39:32;100685.06;;;20.60;100.00
45541;BME280;31265;49.680;8.608;2023-08-17T06:42:01;100685.91;;;20.63;100.00
45541;BME280;31265;49.680;8.608;2023-08-17T06:44:32;100676.38;;;20.83;100.00
45541;BME280;31265;49.680;8.608;2023-08-17T06:47:00;100682.28;;;21.03;100.00
45541;BME280;31265;49.680;8.608;2023-08-17T06:49:30;100687.28;;;21.19;100.00
45541;BME280;31265;49.680;8.608;2023-08-17T06:51:59;100687.16;;;21.31;100.00
45541;BME280;31265;49.680;8.608;2023-08-17T06:54:28;100688.22;;;21.67;100.00
45541;BME280;31265;49.680;8.608;2023-08-17T06:56:59;100690.81;;;21.93;100.00
45541;BME280;31265;49.680;8.608;2023-08-17T06:59:27;100687.19;;;22.06;100.00
45541;BME280;31265;49.680;8.608;2023-08-17T07:01:56;100680.38;;;22.43;100.00
45541;BME280;31265;49.680;8.608;2023-08-17T07:04:25;100684.63;;;22.60;100.00
45541;BME280;31265;49.680;8.608;2023-08-17T07:06:55;100684.75;;;22.46;100.00
45541;BME280;31265;49.680;8.608;2023-08-17T07:09:23;100693.78;;;22.58;100.00
45541;BME280;31265;49.680;8.608;2023-08-17T07:11:51;100688.47;;;22.19;100.00
45541;BME280;31265;49.680;8.608;2023-08-17T07:14:20;100691.97;;;21.87;100.00
45541;BME280;31265;49.680;8.608;2023-08-17T07:16:49;100700.00;;;21.77;100.00
45541;BME280;31265;49.680;8.608;2023-08-17T07:19:17;100705.75;;;21.79;100.00
45541;BME280;31265;49.680;8.608;2023-08-17T07:21:51;100709.06;;;21.60;100.00
45541;BME280;31265;49.680;8.608;2023-08-17T07:24:24;100704.78;;;21.59;100.00
45541;BME280;31265;49.680;8.608;2023-08-17T07:26:52;100717.75;;;21.80;100.00
45541;BME280;31265;49.680;8.608;2023-08-17T07:29:21;100711.59;;;22.15;100.00
45541;BME280;31265;49.680;8.608;2023-08-17T07:31:51;100712.00;;;22.71;100.00
45541;BME280;31265;49.680;8.608;2023-08-17T07:34:21;100706.91;;;23.35;100.00
45541;BME280;31265;49.680;8.608;2023-08-17T07:36:49;100709.34;;;23.60;100.00
45541;BME280;31265;49.680;8.608;2023-08-17T07:39:18;100703.38;;;23.52;100.00
45541;BME280;31265;49.680;8.608;2023-08-17T07:41:47;100703.28;;;23.86;100.00
45541;BME280;31265;49.680;8.608;2023-08-17T07:44:16;100694.84;;;24.06;100.00
45541;BME280;31265;49.680;8.608;2023-08-17T07:46:45;100699.38;;;24.33;100.00
45541;BME280;31265;49.680;8.608;2023-08-17T07:49:17;100701.84;;;24.23;100.00
45541;BME280;31265;49.680;8.608;2023-08-17T07:51:58;100689.78;;;24.22;100.00
45541;BME280;31265;49.680;8.608;2023-08-17T07:54:26;100698.41;;;23.71;100.00
45541;BME280;31265;49.680;8.608;2023-08-17T07:56:57;100701.25;;;23.35;100.00
45541;BME280;31265;49.680;8.608;2023-08-17T07:59:25;100694.69;;;23.12;100.00
45541;BME280;31265;49.680;8.608;2023-08-17T08:01:54;100704.72;;;23.33;100.00
45541;BME280;31265;49.680;8.608;2023-08-17T08:04:23;100703.50;;;24.10;100.00
45541;BME280;31265;49.680;8.608;2023-08-17T08:06:51;100706.13;;;24.24;100.00
45541;BME280;31265;49.680;8.608;2023-08-17T08:09:19;100702.28;;;24.75;100.00
45541;BME280;31265;49.680;8.608;2023-08-17T08:11:48;100689.34;;;24.30;100.00
45541;BME280;31265;49.680;8.608;2023-08-17T08:14:20;100691.25;;;24.06;100.00
45541;BME280;31265;49.680;8.608;2023-08-17T08:16:49;100697.56;;;24.42;100.00
45541;BME280;31265;49.680;8.608;2023-08-17T08:19:18;100698.50;;;24.88;100.00
45541;BME280;31265;49.680;8.608;2023-08-17T08:21:46;100706.50;;;25.36;100.00
45541;BME280;31265;49.680;8.608;2023-08-17T08:24:14;100700.56;;;25.50;100.00
45541;BME280;31265;49.680;8.608;2023-08-17T08:26:57;100693.22;;;25.21;100.00
45541;BME280;31265;49.680;8.608;2023-08-17T08:29:27;100700.91;;;24.96;100.00
45541;BME280;31265;49.680;8.608;2023-08-17T08:31:55;100681.91;;;25.01;100.00
45541;BME280;31265;49.680;8.608;2023-08-17T08:34:26;100686.84;;;25.00;100.00
45541;BME280;31265;49.680;8.608;2023-08-17T08:36:54;100688.81;;;25.38;100.00
45541;BME280;31265;49.680;8.608;2023-08-17T08:39:25;100686.91;;;24.80;100.00
45541;BME280;31265;49.680;8.608;2023-08-17T08:41:55;100686.31;;;24.64;100.00
45541;BME280;31265;49.680;8.608;2023-08-17T08:44:24;100687.63;;;25.45;100.00
45541;BME280;31265;49.680;8.608;2023-08-17T08:46:56;100694.63;;;25.88;100.00
45541;BME280;31265;49.680;8.608;2023-08-17T08:49:25;100689.97;;;26.23;100.00
45541;BME280;31265;49.680;8.608;2023-08-17T08:51:58;100688.59;;;26.50;100.00
45541;BME280;31265;49.680;8.608;2023-08-17T08:54:29;100694.78;;;27.22;100.00
45541;BME280;31265;49.680;8.608;2023-08-17T08:57:07;100693.19;;;27.45;100.00
45541;BME280;31265;49.680;8.608;2023-08-17T08:59:37;100687.94;;;26.51;100.00
45541;BME280;31265;49.680;8.608;2023-08-17T09:02:14;100683.91;;;26.60;100.00
45541;BME280;31265;49.680;8.608;2023-08-17T09:04:43;100685.97;;;26.84;100.00
45541;BME280;31265;49.680;8.608;2023-08-17T09:07:13;100679.84;;;26.68;100.00
45541;BME280;31265;49.680;8.608;2023-08-17T09:09:41;100687.47;;;26.87;100.00
45541;BME280;31265;49.680;8.608;2023-08-17T09:12:10;100670.69;;;26.45;100.00
45541;BME280;31265;49.680;8.608;2023-08-17T09:14:39;100674.81;;;26.40;100.00
45541;BME280;31265;49.680;8.608;2023-08-17T09:17:08;100679.25;;;26.99;100.00
45541;BME280;31265;49.680;8.608;2023-08-17T09:19:39;100672.88;;;27.01;100.00
45541;BME280;31265;49.680;8.608;2023-08-17T09:22:08;100679.63;;;27.76;100.00
45541;BME280;31265;49.680;8.608;2023-08-17T09:24:37;100671.22;;;27.50;100.00
45541;BME280;31265;49.680;8.608;2023-08-17T09:27:05;100671.50;;;27.62;100.00
45541;BME280;31265;49.680;8.608;2023-08-17T09:29:42;100668.16;;;27.72;100.00
45541;BME280;31265;49.680;8.608;2023-08-17T09:32:14;100665.16;;;27.98;100.00
45541;BME280;31265;49.680;8.608;2023-08-17T09:34:45;100657.78;;;28.21;100.00
45541;BME280;31265;49.680;8.608;2023-08-17T09:37:15;100662.41;;;28.02;100.00
45541;BME280;31265;49.680;8.608;2023-08-17T09:39:43;100655.13;;;27.63;100.00
45541;BME280;31265;49.680;8.608;2023-08-17T09:42:15;100654.63;;;28.05;100.00
45541;BME280;31265;49.680;8.608;2023-08-17T09:44:45;100658.59;;;27.92;100.00
45541;BME280;31265;49.680;8.608;2023-08-17T09:47:14;100661.72;;;28.77;100.00
45541;BME280;31265;49.680;8.608;2023-08-17T09:49:42;100662.69;;;28.53;100.00
45541;BME280;31265;49.680;8.608;2023-08-17T09:52:13;100661.50;;;28.64;100.00
45541;BME280;31265;49.680;8.608;2023-08-17T09:54:42;100660.47;;;28.88;100.00
45541;BME280;31265;49.680;8.608;2023-08-17T09:57:12;100659.09;;;28.14;100.00
45541;BME280;31265;49.680;8.608;2023-08-17T09:59:40;100652.78;;;26.95;100.00
45541;BME280;31265;49.680;8.608;2023-08-17T10:02:16;100654.22;;;27.54;100.00
45541;BME280;31265;49.680;8.608;2023-08-17T10:04:50;100656.75;;;27.72;100.00
45541;BME280;31265;49.680;8.608;2023-08-17T10:07:24;100658.50;;;27.85;100.00
45541;BME280;31265;49.680;8.608;2023-08-17T10:10:03;100651.56;;;27.32;100.00
45541;BME280;31265;49.680;8.608;2023-08-17T10:12:37;100651.72;;;27.38;100.00
45541;BME280;31265;49.680;8.608;2023-08-17T10:15:15;100649.53;;;27.99;100.00
45541;BME280;31265;49.680;8.608;2023-08-17T10:17:53;100651.97;;;28.15;100.00
45541;BME280;31265;49.680;8.608;2023-08-17T10:20:24;100655.47;;;27.79;100.00
45541;BME280;31265;49.680;8.608;2023-08-17T10:23:01;100654.56;;;28.03;100.00
45541;BME280;31265;49.680;8.608;2023-08-17T10:25:35;100651.78;;;28.41;100.00
45541;BME280;31265;49.680;8.608;2023-08-17T10:28:05;100646.84;;;29.27;100.00
45541;BME280;31265;49.680;8.608;2023-08-17T10:30:35;100641.97;;;29.37;100.00
45541;BME280;31265;49.680;8.608;2023-08-17T10:33:05;100647.44;;;28.77;100.00
45541;BME280;31265;49.680;8.608;2023-08-17T10:35:35;100640.91;;;28.34;100.00
45541;BME280;31265;49.680;8.608;2023-08-17T10:38:06;100647.59;;;28.87;100.00
45541;BME280;31265;49.680;8.608;2023-08-17T10:40:41;100645.13;;;29.09;100.00
45541;BME280;31265;49.680;8.608;2023-08-17T10:43:13;100643.91;;;29.71;100.00
45541;BME280;31265;49.680;8.608;2023-08-17T10:45:43;100635.28;;;29.19;100.00
45541;BME280;31265;49.680;8.608;2023-08-17T10:48:27;100641.66;;;29.64;100.00
45541;BME280;31265;49.680;8.608;2023-08-17T10:51:04;100631.75;;;29.71;100.00
45541;BME280;31265;49.680;8.608;2023-08-17T10:53:45;100630.63;;;30.57;100.00
45541;BME280;31265;49.680;8.608;2023-08-17T10:56:16;100628.53;;;30.62;100.00
45541;BME280;31265;49.680;8.608;2023-08-17T10:58:48;100629.72;;;30.40;100.00
45541;BME280;31265;49.680;8.608;2023-08-17T11:01:31;100627.28;;;30.12;100.00
45541;BME280;31265;49.680;8.608;2023-08-17T11:04:12;100629.59;;;30.28;100.00
45541;BME280;31265;49.680;8.608;2023-08-17T11:06:42;100632.56;;;30.38;100.00
45541;BME280;31265;49.680;8.608;2023-08-17T11:09:16;100638.44;;;29.90;100.00
45541;BME280;31265;49.680;8.608;2023-08-17T11:11:56;100639.03;;;29.82;100.00
45541;BME280;31265;49.680;8.608;2023-08-17T11:14:44;100642.50;;;30.29;100.00
45541;BME280;31265;49.680;8.608;2023-08-17T11:17:12;100642.06;;;29.92;100.00
45541;BME280;31265;49.680;8.608;2023-08-17T11:19:41;100632.44;;;30.26;100.00
45541;BME280;31265;49.680;8.608;2023-08-17T11:22:09;100633.41;;;30.51;100.00
45541;BME280;31265;49.680;8.608;2023-08-17T11:24:39;100633.88;;;30.25;100.00
45541;BME280;31265;49.680;8.608;2023-08-17T11:27:12;100630.53;;;30.47;100.00
45541;BME280;31265;49.680;8.608;2023-08-17T11:29:41;100637.25;;;30.78;100.00
45541;BME280;31265;49.680;8.608;2023-08-17T11:32:15;100637.41;;;30.95;100.00
45541;BME280;31265;49.680;8.608;2023-08-17T11:34:44;100636.34;;;31.41;100.00
45541;BME280;31265;49.680;8.608;2023-08-17T11:37:13;100624.22;;;31.55;100.00
45541;BME280;31265;49.680;8.608;2023-08-17T11:39:43;100627.56;;;31.20;100.00
45541;BME280;31265;49.680;8.608;2023-08-17T11:42:11;100621.00;;;31.01;100.00
45541;BME280;31265;49.680;8.608;2023-08-17T11:44:46;100622.56;;;31.21;100.00
45541;BME280;31265;49.680;8.608;2023-08-17T11:47:22;100626.31;;;31.44;99.90
45541;BME280;31265;49.680;8.608;2023-08-17T11:49:59;100624.91;;;31.47;98.70
45541;BME280;31265;49.680;8.608;2023-08-17T11:52:46;100618.16;;;31.07;100.00
45541;BME280;31265;49.680;8.608;2023-08-17T11:55:21;100620.06;;;30.80;100.00
45541;BME280;31265;49.680;8.608;2023-08-17T11:57:52;100619.53;;;30.96;100.00
45541;BME280;31265;49.680;8.608;2023-08-17T12:00:22;100616.66;;;30.98;100.00
45541;BME280;31265;49.680;8.608;2023-08-17T12:02:55;100614.41;;;30.84;100.00
45541;BME280;31265;49.680;8.608;2023-08-17T12:05:24;100624.63;;;31.10;100.00
45541;BME280;31265;49.680;8.608;2023-08-17T12:07:57;100633.38;;;31.28;100.00
45541;BME280;31265;49.680;8.608;2023-08-17T12:10:31;100631.97;;;30.48;100.00
45541;BME280;31265;49.680;8.608;2023-08-17T12:12:59;100631.25;;;30.48;100.00
45541;BME280;31265;49.680;8.608;2023-08-17T12:15:30;100631.16;;;29.78;100.00
45541;BME280;31265;49.680;8.608;2023-08-17T12:18:01;100638.28;;;29.77;100.00
45541;BME280;31265;49.680;8.608;2023-08-17T12:20:32;100636.03;;;30.25;100.00
45541;BME280;31265;49.680;8.608;2023-08-17T12:23:04;100646.69;;;30.89;100.00
45541;BME280;31265;49.680;8.608;2023-08-17T12:25:33;100642.84;;;30.64;100.00
45541;BME280;31265;49.680;8.608;2023-08-17T12:28:02;100641.47;;;30.69;100.00
45541;BME280;31265;49.680;8.608;2023-08-17T12:30:31;100638.38;;;30.45;100.00
45541;BME280;31265;49.680;8.608;2023-08-17T12:33:04;100645.56;;;30.48;100.00
45541;BME280;31265;49.680;8.608;2023-08-17T12:35:32;100656.91;;;30.37;100.00
45541;BME280;31265;49.680;8.608;2023-08-17T12:38:01;100648.94;;;29.73;100.00
45541;BME280;31265;49.680;8.608;2023-08-17T12:40:29;100660.13;;;29.56;100.00
45541;BME280;31265;49.680;8.608;2023-08-17T12:42:58;100654.94;;;28.98;100.00
45541;BME280;31265;49.680;8.608;2023-08-17T12:45:27;100658.00;;;29.10;100.00
45541;BME280;31265;49.680;8.608;2023-08-17T12:47:57;100659.28;;;29.01;100.00
45541;BME280;31265;49.680;8.608;2023-08-17T12:50:25;100648.59;;;29.04;100.00
45541;BME280;31265;49.680;8.608;2023-08-17T12:52:54;100644.63;;;29.21;100.00
45541;BME280;31265;49.680;8.608;2023-08-17T12:55:23;100632.84;;;29.01;100.00
45541;BME280;31265;49.680;8.608;2023-08-17T12:57:51;100631.56;;;29.10;100.00